Austin, Utah
Current Conditions -  °F | °C
As of 1:52 AM on Saturday 01 Nov 2014 (Local Time) from KMLF Reporting Station
Clear Clear  
Wind Chill: 55°   Ceiling: Unl
Heat Index: 55°   Visibility: 10mi
Dew Point: 30°   Wind: 15mph
Humidity: 38%   Direction: 210°SSW
Pressure: 29.78"   Gusts: NA
Location:  38.6125°N, 112.081°W
Report Text: KMLF 010752Z AUTO 21013KT 10SM CLR 13/M01 A2978 RMK AO2 SLP026 T01281011 TSNO
Loading
Personal Weather Stations






























Interactive Weather Map
Tropical Storm Tracking
New forecast layout! Learn more

10-Day Weather Forecast

Advertisements
Track Severe Weather on mobile